createdAt,value
2022-10-19T00:00:17.045Z,101469.75
2022-10-19T00:02:18.916Z,101468.59
2022-10-19T00:04:20.674Z,101471.94
2022-10-19T00:06:31.528Z,101472.34
2022-10-19T00:08:33.623Z,101464.38
2022-10-19T00:10:35.626Z,101468.00
2022-10-19T00:12:37.622Z,101436.47
2022-10-19T00:14:39.405Z,101475.94
2022-10-19T00:16:42.834Z,101464.50
2022-10-19T00:18:45.503Z,101468.25
2022-10-19T00:20:47.316Z,101471.28
2022-10-19T00:22:50.273Z,101471.88
2022-10-19T00:24:52.055Z,101472.25
2022-10-19T00:26:54.114Z,101467.69
2022-10-19T00:28:56.777Z,101462.63
2022-10-19T00:31:06.762Z,101468.88
2022-10-19T00:33:08.898Z,101470.44
2022-10-19T00:35:10.750Z,101474.13
2022-10-19T00:37:12.518Z,101462.25
2022-10-19T00:39:17.039Z,101460.44
2022-10-19T00:41:20.563Z,101462.13
2022-10-19T00:43:25.916Z,101461.97
2022-10-19T00:45:27.741Z,101455.38
2022-10-19T00:47:29.923Z,101461.59
2022-10-19T00:49:36.127Z,101459.31
2022-10-19T00:51:42.255Z,101456.00
2022-10-19T00:53:44.044Z,101453.81
2022-10-19T00:55:46.693Z,101451.81
2022-10-19T00:57:48.841Z,101451.50
2022-10-19T00:59:51.591Z,101460.88
2022-10-19T01:01:55.067Z,101468.84
2022-10-19T01:03:57.339Z,101453.03
2022-10-19T01:06:00.042Z,101455.31
2022-10-19T01:08:02.077Z,101455.31
2022-10-19T01:10:04.452Z,101450.38
2022-10-19T01:12:25.568Z,101456.09
2022-10-19T01:14:36.481Z,101451.75
2022-10-19T01:16:47.103Z,101426.91
2022-10-19T01:19:18.482Z,101449.44
2022-10-19T01:21:20.149Z,101444.38
2022-10-19T01:23:40.404Z,101434.28
2022-10-19T01:26:00.003Z,101435.63
2022-10-19T01:28:37.837Z,101440.72
2022-10-19T01:31:03.056Z,101433.25
2022-10-19T01:33:44.902Z,101437.59
2022-10-19T01:36:01.292Z,101429.66
2022-10-19T01:38:33.460Z,101433.25
2022-10-19T01:41:31.445Z,101427.13
2022-10-19T01:43:45.871Z,101425.09
2022-10-19T01:45:54.924Z,101419.94
2022-10-19T01:48:15.040Z,101422.84
2022-10-19T01:50:25.252Z,101421.69
2022-10-19T01:52:28.087Z,101412.72
2022-10-19T01:54:36.263Z,101419.28
2022-10-19T01:56:40.015Z,101413.13
2022-10-19T01:58:45.383Z,101414.81
2022-10-19T02:00:51.535Z,101410.34
2022-10-19T02:02:55.415Z,101409.97
2022-10-19T02:04:57.934Z,101404.47
2022-10-19T02:07:01.069Z,101406.34
2022-10-19T02:09:03.261Z,101412.03
2022-10-19T02:11:05.420Z,101409.13
2022-10-19T02:13:08.311Z,101405.25
2022-10-19T02:15:15.181Z,101406.94
2022-10-19T02:17:25.460Z,101404.41
2022-10-19T02:19:27.201Z,101406.44
2022-10-19T02:21:29.188Z,101399.00
2022-10-19T02:23:31.122Z,101406.22
2022-10-19T02:25:34.499Z,101403.78
2022-10-19T02:29:39.535Z,101391.03
2022-10-19T02:33:54.045Z,101399.88
2022-10-19T02:35:56.978Z,101400.41
2022-10-19T02:38:02.062Z,101395.38
2022-10-19T02:40:05.450Z,101394.38
2022-10-19T02:42:09.547Z,101386.59
2022-10-19T02:44:26.444Z,101397.75
2022-10-19T02:46:31.145Z,101394.13
2022-10-19T02:48:35.407Z,101395.50
2022-10-19T02:50:37.474Z,101398.59
2022-10-19T02:52:40.813Z,101401.66
2022-10-19T02:54:44.658Z,101406.78
2022-10-19T02:56:46.353Z,101397.22
2022-10-19T02:58:48.082Z,101402.81
2022-10-19T03:00:50.061Z,101401.97
2022-10-19T03:02:51.808Z,101406.75
2022-10-19T03:04:53.553Z,101404.75
2022-10-19T03:06:55.495Z,101403.66
2022-10-19T03:08:57.164Z,101396.44
2022-10-19T03:10:59.453Z,101398.03
2022-10-19T03:13:01.688Z,101389.94
2022-10-19T03:15:03.856Z,101393.63
2022-10-19T03:17:05.737Z,101397.13
2022-10-19T03:19:07.952Z,101389.44
2022-10-19T03:21:12.836Z,101390.97
2022-10-19T03:23:14.520Z,101391.94
2022-10-19T03:25:16.588Z,101390.00
2022-10-19T03:27:18.306Z,101383.41
2022-10-19T03:29:19.990Z,101384.81
2022-10-19T03:31:21.853Z,101383.78
2022-10-19T03:33:26.907Z,101380.56
2022-10-19T03:35:28.654Z,101377.50
2022-10-19T03:37:30.954Z,101382.56
2022-10-19T03:39:32.758Z,101383.84
2022-10-19T03:41:36.674Z,101378.44
2022-10-19T03:43:39.020Z,101374.09
2022-10-19T03:45:40.747Z,101382.81
2022-10-19T03:47:42.439Z,101384.56
2022-10-19T03:49:44.402Z,101377.88
2022-10-19T03:51:46.134Z,101384.69
2022-10-19T03:53:51.853Z,101365.38
2022-10-19T03:55:53.874Z,101375.69
2022-10-19T03:57:55.590Z,101373.34
2022-10-19T03:59:57.266Z,101373.88
2022-10-19T04:01:59.318Z,101368.06
2022-10-19T04:04:04.287Z,101362.34
2022-10-19T04:06:09.067Z,101364.53
2022-10-19T04:08:11.154Z,101365.03
2022-10-19T04:10:13.073Z,101369.88
2022-10-19T04:12:14.788Z,101366.78
2022-10-19T04:14:31.599Z,101365.84
2022-10-19T04:16:35.303Z,101368.75
2022-10-19T04:18:36.971Z,101363.44
2022-10-19T04:20:38.725Z,101369.06
2022-10-19T04:22:40.618Z,101356.44
2022-10-19T04:24:42.297Z,101357.78
2022-10-19T04:26:52.802Z,101360.16
2022-10-19T04:28:56.656Z,101362.56
2022-10-19T04:31:01.979Z,101352.84
2022-10-19T04:33:03.953Z,101365.03
2022-10-19T04:35:06.287Z,101368.31
2022-10-19T04:37:08.003Z,101355.22
2022-10-19T04:39:09.935Z,101353.25
2022-10-19T04:41:13.516Z,101350.03
2022-10-19T04:43:15.199Z,101350.72
2022-10-19T04:45:17.274Z,101345.44
2022-10-19T04:47:19.227Z,101350.59
2022-10-19T04:49:20.955Z,101352.06
2022-10-19T04:51:24.383Z,101354.69
2022-10-19T04:53:26.497Z,101345.06
2022-10-19T04:55:28.232Z,101347.59
2022-10-19T04:57:30.122Z,101350.38
2022-10-19T04:59:32.144Z,101350.81
2022-10-19T05:01:33.887Z,101335.34
2022-10-19T05:03:35.890Z,101353.03
2022-10-19T05:05:37.782Z,101347.13
2022-10-19T05:07:39.570Z,101362.00
2022-10-19T05:09:41.442Z,101350.81
2022-10-19T05:11:43.382Z,101357.34
2022-10-19T05:13:45.593Z,101356.22
2022-10-19T05:15:58.137Z,101333.31
2022-10-19T05:18:00.085Z,101356.38
2022-10-19T05:20:01.847Z,101355.06
2022-10-19T05:22:03.844Z,101361.22
2022-10-19T05:24:05.848Z,101370.09
2022-10-19T05:26:16.286Z,101367.75
2022-10-19T05:28:18.155Z,101366.41
2022-10-19T05:30:21.067Z,101366.06
2022-10-19T05:32:22.890Z,101371.53
2022-10-19T05:34:24.749Z,101375.97
2022-10-19T05:36:31.773Z,101376.56
2022-10-19T05:38:33.506Z,101377.50
2022-10-19T05:40:35.341Z,101370.09
2022-10-19T05:42:37.165Z,101382.63
2022-10-19T05:46:45.901Z,101374.41
2022-10-19T05:48:48.300Z,101375.38
2022-10-19T05:50:56.050Z,101380.63
2022-10-19T05:52:57.858Z,101363.69
2022-10-19T05:54:59.530Z,101375.97
2022-10-19T05:57:01.446Z,101378.78
2022-10-19T05:59:05.638Z,101372.09
2022-10-19T06:01:07.479Z,101367.75
2022-10-19T06:03:09.180Z,101366.91
2022-10-19T06:05:11.048Z,101366.03
2022-10-19T06:07:12.770Z,101369.13
2022-10-19T06:09:14.561Z,101365.81
2022-10-19T06:11:22.652Z,101375.69
2022-10-19T06:13:24.352Z,101364.91
2022-10-19T06:15:26.090Z,101371.31
2022-10-19T06:17:29.282Z,101375.72
2022-10-19T06:19:30.968Z,101363.56
2022-10-19T06:21:34.281Z,101365.03
2022-10-19T06:23:36.576Z,101358.50
2022-10-19T06:25:38.284Z,101368.16
2022-10-19T06:27:40.075Z,101362.34
2022-10-19T06:29:41.855Z,101362.22
2022-10-19T06:31:43.593Z,101364.34
2022-10-19T06:33:48.546Z,101369.13
2022-10-19T06:35:51.462Z,101368.28
2022-10-19T06:37:53.229Z,101368.06
2022-10-19T06:39:55.208Z,101374.38
2022-10-19T06:41:57.070Z,101382.28
2022-10-19T06:43:58.770Z,101378.41
2022-10-19T06:46:04.879Z,101375.22
2022-10-19T06:48:07.801Z,101375.69
2022-10-19T06:50:10.179Z,101383.97
2022-10-19T06:52:12.205Z,101380.59
2022-10-19T06:54:13.999Z,101382.88
2022-10-19T06:56:15.792Z,101388.63
2022-10-19T06:58:18.091Z,101393.72
2022-10-19T07:00:19.901Z,101380.88
2022-10-19T07:02:21.808Z,101383.44
2022-10-19T07:04:23.682Z,101376.84
2022-10-19T07:06:27.630Z,101386.69
2022-10-19T07:08:30.990Z,101390.91
2022-10-19T07:10:32.870Z,101388.81
2022-10-19T07:12:34.862Z,101397.16
2022-10-19T07:14:37.160Z,101390.91
2022-10-19T07:16:38.986Z,101388.06
2022-10-19T07:18:41.566Z,101389.34
2022-10-19T07:20:43.243Z,101394.03
2022-10-19T07:22:44.995Z,101394.63
2022-10-19T07:24:46.821Z,101406.13
2022-10-19T07:26:48.519Z,101394.44
2022-10-19T07:28:51.274Z,101402.28
2022-10-19T07:30:53.110Z,101402.19
2022-10-19T07:32:54.786Z,101405.63
2022-10-19T07:34:56.633Z,101405.78
2022-10-19T07:36:58.506Z,101406.47
2022-10-19T07:39:04.803Z,101408.75
2022-10-19T07:41:14.794Z,101403.19
2022-10-19T07:43:16.600Z,101405.63
2022-10-19T07:45:18.321Z,101404.06
2022-10-19T07:47:20.098Z,101412.63
2022-10-19T07:49:22.114Z,101413.91
2022-10-19T07:51:23.880Z,101410.56
2022-10-19T07:53:25.699Z,101414.97
2022-10-19T07:55:27.476Z,101416.56
2022-10-19T07:57:29.182Z,101413.53
2022-10-19T07:59:31.186Z,101421.00
2022-10-19T08:01:38.320Z,101412.09
2022-10-19T08:04:14.223Z,101419.69
2022-10-19T08:06:03.866Z,101418.41
2022-10-19T08:08:05.867Z,101420.78
2022-10-19T08:10:08.328Z,101422.88
2022-10-19T08:12:14.929Z,101418.38
2022-10-19T08:14:17.307Z,101419.31
2022-10-19T08:16:41.868Z,101413.44
2022-10-19T08:18:43.775Z,101417.66
2022-10-19T08:20:45.612Z,101407.63
2022-10-19T08:22:47.333Z,101417.50
2022-10-19T08:24:49.345Z,101424.38
2022-10-19T08:26:51.499Z,101421.41
2022-10-19T08:28:53.296Z,101417.22
2022-10-19T08:30:55.012Z,101421.97
2022-10-19T08:32:56.961Z,101421.69
2022-10-19T08:34:58.848Z,101424.22
2022-10-19T08:37:10.162Z,101427.22
2022-10-19T08:39:22.145Z,101428.06
2022-10-19T08:41:51.489Z,101431.06
2022-10-19T08:44:16.455Z,101429.06
2022-10-19T08:46:27.866Z,101427.78
2022-10-19T08:48:32.674Z,101432.09
2022-10-19T08:50:39.408Z,101436.03
2022-10-19T08:52:42.818Z,101435.03
2022-10-19T08:54:54.812Z,101440.88
2022-10-19T08:57:20.309Z,101438.69
2022-10-19T08:59:28.366Z,101441.19
2022-10-19T09:01:41.875Z,101436.34
2022-10-19T09:03:55.509Z,101440.81
2022-10-19T09:06:23.806Z,101433.63
2022-10-19T09:08:26.071Z,101447.09
2022-10-19T09:10:33.843Z,101446.00
2022-10-19T09:12:44.967Z,101457.44
2022-10-19T09:15:04.539Z,101447.84
2022-10-19T09:17:14.495Z,101444.84
2022-10-19T09:19:24.549Z,101455.22
2022-10-19T09:22:07.808Z,101450.66
2022-10-19T09:24:22.675Z,101460.16
2022-10-19T09:26:37.200Z,101465.34
2022-10-19T09:28:54.905Z,101472.09
2022-10-19T09:30:57.887Z,101483.91
2022-10-19T09:33:01.652Z,101496.28
2022-10-19T09:35:15.068Z,101488.38
2022-10-19T09:37:25.026Z,101502.16
2022-10-19T09:39:29.950Z,101501.56
2022-10-19T09:41:32.715Z,101496.63
2022-10-19T09:43:34.864Z,101501.22
2022-10-19T09:45:46.416Z,101499.28
2022-10-19T09:47:48.962Z,101509.00
2022-10-19T09:50:11.102Z,101515.03
2022-10-19T09:52:26.184Z,101515.19
2022-10-19T09:54:35.391Z,101517.78
2022-10-19T09:56:37.106Z,101502.09
2022-10-19T09:58:49.072Z,101517.78
2022-10-19T10:00:53.035Z,101528.16
2022-10-19T10:02:56.338Z,101526.84
2022-10-19T10:05:14.791Z,101545.47
2022-10-19T10:07:18.500Z,101539.94
2022-10-19T10:09:23.810Z,101518.94
2022-10-19T10:11:30.643Z,101530.75
2022-10-19T10:13:37.669Z,101535.31
2022-10-19T10:15:47.243Z,101538.94
2022-10-19T10:17:49.935Z,101531.91
2022-10-19T10:20:00.654Z,101535.72
2022-10-19T10:22:04.170Z,101529.13
2022-10-19T10:24:17.921Z,101527.53
2022-10-19T10:26:19.901Z,101523.31
2022-10-19T10:28:25.010Z,101522.47
2022-10-19T10:30:30.935Z,101530.50
2022-10-19T10:32:38.793Z,101535.34
2022-10-19T10:34:53.781Z,101537.03
2022-10-19T10:36:57.736Z,101535.19
2022-10-19T10:39:17.771Z,101539.91
2022-10-19T10:41:23.644Z,101527.59
2022-10-19T10:43:35.197Z,101540.56
2022-10-19T10:45:45.805Z,101537.78
2022-10-19T10:47:48.423Z,101538.47
2022-10-19T10:50:03.381Z,101543.38
2022-10-19T10:52:08.309Z,101542.25
2022-10-19T10:54:18.145Z,101555.59
2022-10-19T10:56:30.545Z,101548.00
2022-10-19T10:58:44.268Z,101548.75
2022-10-19T11:00:48.615Z,101541.44
2022-10-19T11:03:22.884Z,101539.69
2022-10-19T11:05:42.093Z,101546.72
2022-10-19T11:07:46.722Z,101544.97
2022-10-19T11:09:57.031Z,101541.72
2022-10-19T11:12:04.332Z,101546.28
2022-10-19T11:14:44.264Z,101548.09
2022-10-19T11:16:48.158Z,101551.34
2022-10-19T11:19:03.016Z,101548.44
2022-10-19T11:21:07.365Z,101545.84
2022-10-19T11:23:25.747Z,101542.16
2022-10-19T11:25:46.655Z,101536.47
2022-10-19T11:28:18.553Z,101550.44
2022-10-19T11:30:24.916Z,101551.47
2022-10-19T11:32:38.654Z,101552.47
2022-10-19T11:34:54.034Z,101553.00
2022-10-19T11:37:06.183Z,101544.91
2022-10-19T11:39:29.619Z,101557.75
2022-10-19T11:41:44.497Z,101553.81
2022-10-19T11:43:51.879Z,101549.44
2022-10-19T11:46:16.442Z,101549.91
2022-10-19T11:48:33.558Z,101554.50
2022-10-19T11:51:31.342Z,101553.34
2022-10-19T11:54:03.691Z,101551.22
2022-10-19T11:56:25.155Z,101543.59
2022-10-19T11:59:01.118Z,101550.81
2022-10-19T12:01:30.110Z,101543.31
2022-10-19T12:03:54.524Z,101555.34
2022-10-19T12:06:11.740Z,101547.47
2022-10-19T12:08:47.192Z,101559.72
2022-10-19T12:11:01.784Z,101526.09
2022-10-19T12:13:06.383Z,101556.00
2022-10-19T12:15:22.924Z,101547.94
2022-10-19T12:17:41.899Z,101551.28
2022-10-19T12:19:48.686Z,101552.31
2022-10-19T12:21:53.635Z,101562.81
2022-10-19T12:23:57.857Z,101564.63
2022-10-19T12:26:03.687Z,101526.69
2022-10-19T12:28:05.543Z,101564.91
2022-10-19T12:30:16.162Z,101560.44
2022-10-19T12:32:23.326Z,101566.09
2022-10-19T12:34:36.794Z,101565.78
2022-10-19T12:36:47.958Z,101565.25
2022-10-19T12:39:27.847Z,101561.78
2022-10-19T12:41:56.742Z,101580.59
2022-10-19T12:44:32.423Z,101586.13
2022-10-19T12:46:49.865Z,101592.66
2022-10-19T12:49:32.173Z,101588.66
2022-10-19T12:51:46.290Z,101585.78
2022-10-19T12:53:48.874Z,101593.94
2022-10-19T12:56:05.354Z,101587.31
2022-10-19T12:58:23.048Z,101588.22
2022-10-19T13:00:28.853Z,101586.84
2022-10-19T13:02:35.438Z,101600.03
2022-10-19T13:04:37.477Z,101594.38
2022-10-19T13:06:48.703Z,101586.31
2022-10-19T13:08:53.568Z,101595.59
2022-10-19T13:11:10.268Z,101607.16
2022-10-19T13:13:50.119Z,101609.00
2022-10-19T13:15:52.232Z,101598.25
2022-10-19T13:17:54.116Z,101618.28
2022-10-19T13:20:15.738Z,101610.69
2022-10-19T13:22:26.553Z,101609.81
2022-10-19T13:24:32.188Z,101610.44
2022-10-19T13:26:34.779Z,101609.47
2022-10-19T13:28:39.150Z,101616.81
2022-10-19T13:30:41.124Z,101620.31
2022-10-19T13:32:44.835Z,101616.34
2022-10-19T13:34:47.051Z,101615.63
2022-10-19T13:37:03.264Z,101618.78
2022-10-19T13:39:10.284Z,101613.69
2022-10-19T13:41:19.660Z,101625.38
2022-10-19T13:43:28.354Z,101620.31
2022-10-19T13:45:30.383Z,101628.50
2022-10-19T13:47:42.652Z,101620.81
2022-10-19T13:50:06.987Z,101605.97
2022-10-19T13:52:43.371Z,101624.13
2022-10-19T13:55:14.973Z,101629.09
2022-10-19T13:57:24.302Z,101627.22
2022-10-19T13:59:37.304Z,101628.66
2022-10-19T14:01:52.117Z,101630.66
2022-10-19T14:04:12.376Z,101631.50
2022-10-19T14:06:22.323Z,101628.50
2022-10-19T14:09:03.981Z,101643.34
2022-10-19T14:11:15.963Z,101630.22
2022-10-19T14:13:17.694Z,101644.16
2022-10-19T14:15:28.902Z,101653.22
2022-10-19T14:17:31.493Z,101655.19
2022-10-19T14:19:43.755Z,101662.19
2022-10-19T14:21:45.692Z,101652.50
2022-10-19T14:26:06.870Z,101657.66
2022-10-19T14:28:08.706Z,101649.72
2022-10-19T14:30:27.109Z,101611.91
2022-10-19T14:32:29.754Z,101655.63
2022-10-19T14:34:31.667Z,101659.72
2022-10-19T14:36:40.088Z,101659.38
2022-10-19T14:38:43.268Z,101660.78
2022-10-19T14:40:45.146Z,101650.56
2022-10-19T14:42:47.942Z,101656.00
2022-10-19T14:44:49.673Z,101655.34
2022-10-19T14:46:51.437Z,101663.09
2022-10-19T14:49:02.099Z,101675.34
2022-10-19T14:51:10.410Z,101661.50
2022-10-19T14:53:41.316Z,101665.00
2022-10-19T14:55:43.775Z,101674.84
2022-10-19T14:57:49.633Z,101681.19
2022-10-19T14:59:56.729Z,101683.53
2022-10-19T15:02:04.277Z,101677.25
2022-10-19T15:04:06.000Z,101682.53
2022-10-19T15:06:08.046Z,101687.59
2022-10-19T15:08:17.181Z,101693.13
2022-10-19T15:10:26.865Z,101687.84
2022-10-19T15:12:34.750Z,101697.63
2022-10-19T15:14:38.003Z,101701.13
2022-10-19T15:16:39.661Z,101690.38
2022-10-19T15:18:49.698Z,101700.53
2022-10-19T15:21:12.086Z,101689.91
2022-10-19T15:23:43.638Z,101703.88
2022-10-19T15:25:45.427Z,101696.50
2022-10-19T15:27:47.125Z,101709.28
2022-10-19T15:29:56.833Z,101706.25
2022-10-19T15:32:16.708Z,101707.78
2022-10-19T15:34:36.539Z,101724.75
2022-10-19T15:36:38.422Z,101716.47
2022-10-19T15:38:40.198Z,101721.09
2022-10-19T15:40:44.020Z,101729.81
2022-10-19T15:42:46.028Z,101713.91
2022-10-19T15:44:48.070Z,101731.41
2022-10-19T15:46:49.711Z,101727.84
2022-10-19T15:48:55.454Z,101735.06
2022-10-19T15:50:57.513Z,101736.63
2022-10-19T15:52:59.604Z,101739.41
2022-10-19T15:55:03.157Z,101740.47
2022-10-19T15:57:21.789Z,101745.47
2022-10-19T15:59:23.524Z,101741.47
2022-10-19T16:01:31.671Z,101750.75
2022-10-19T16:03:33.423Z,101753.63
2022-10-19T16:05:36.425Z,101758.28
2022-10-19T16:07:40.244Z,101757.13
2022-10-19T16:09:41.985Z,101763.69
2022-10-19T16:11:44.453Z,101769.50
2022-10-19T16:13:46.233Z,101772.78
2022-10-19T16:15:53.365Z,101775.00
2022-10-19T16:18:03.464Z,101783.88
2022-10-19T16:20:06.512Z,101779.97
2022-10-19T16:22:08.239Z,101790.00
2022-10-19T16:24:10.163Z,101794.44
2022-10-19T16:26:14.994Z,101789.47
2022-10-19T16:28:17.664Z,101794.97
2022-10-19T16:30:19.606Z,101795.50
2022-10-19T16:32:21.573Z,101794.25
2022-10-19T16:34:23.353Z,101801.31
2022-10-19T16:36:25.298Z,101803.00
2022-10-19T16:38:29.404Z,101805.03
2022-10-19T16:40:31.096Z,101810.06
2022-10-19T16:42:33.716Z,101805.75
2022-10-19T16:44:35.909Z,101817.72
2022-10-19T16:46:37.590Z,101814.53
2022-10-19T16:48:39.434Z,101818.63
2022-10-19T16:52:45.745Z,101815.56
2022-10-19T16:54:47.587Z,101820.75
2022-10-19T16:56:49.610Z,101826.78
2022-10-19T16:58:54.305Z,101830.66
2022-10-19T17:00:56.083Z,101828.84
2022-10-19T17:02:57.843Z,101836.03
2022-10-19T17:04:59.574Z,101839.41
2022-10-19T17:07:01.381Z,101830.81
2022-10-19T17:11:34.904Z,101848.59
2022-10-19T17:13:36.688Z,101843.31
2022-10-19T17:15:42.827Z,101845.91
2022-10-19T17:17:44.946Z,101852.66
2022-10-19T17:19:46.686Z,101859.53
2022-10-19T17:21:49.504Z,101856.03
2022-10-19T17:23:53.323Z,101852.50
2022-10-19T17:25:54.938Z,101859.78
2022-10-19T17:28:08.876Z,101859.72
2022-10-19T17:30:10.936Z,101866.50
2022-10-19T17:32:12.815Z,101862.28
2022-10-19T17:34:15.030Z,101863.50
2022-10-19T17:36:25.376Z,101862.09
2022-10-19T17:38:27.158Z,101862.00
2022-10-19T17:40:28.952Z,101859.91
2022-10-19T17:42:30.632Z,101866.53
2022-10-19T17:44:32.555Z,101867.28
2022-10-19T17:46:35.315Z,101873.16
2022-10-19T17:48:38.432Z,101873.72
2022-10-19T17:50:40.266Z,101875.59
2022-10-19T17:52:42.067Z,101872.41
2022-10-19T17:54:54.688Z,101876.94
2022-10-19T17:57:06.760Z,101835.13
2022-10-19T17:59:08.519Z,101881.75
2022-10-19T18:01:11.165Z,101878.44
2022-10-19T18:03:13.641Z,101878.25
2022-10-19T18:05:17.143Z,101879.66
2022-10-19T18:07:19.129Z,101883.22
2022-10-19T18:09:20.893Z,101887.25
2022-10-19T18:11:27.827Z,101885.94
2022-10-19T18:13:30.309Z,101894.13
2022-10-19T18:15:32.068Z,101891.78
2022-10-19T18:17:36.096Z,101888.47
2022-10-19T18:19:37.995Z,101902.13
2022-10-19T18:21:41.757Z,101899.09
2022-10-19T18:23:43.761Z,101903.78
2022-10-19T18:25:53.825Z,101900.22
2022-10-19T18:27:56.203Z,101902.25
2022-10-19T18:29:57.992Z,101898.59
2022-10-19T18:31:59.741Z,101899.91
2022-10-19T18:34:03.677Z,101892.78
2022-10-19T18:36:07.285Z,101907.47
2022-10-19T18:38:09.063Z,101906.38
2022-10-19T18:40:11.036Z,101916.91
2022-10-19T18:42:12.878Z,101913.31
2022-10-19T18:44:14.587Z,101913.94
2022-10-19T18:46:19.394Z,101913.84
2022-10-19T18:48:22.103Z,101923.28
2022-10-19T18:50:23.832Z,101915.09
2022-10-19T18:52:25.679Z,101922.78
2022-10-19T18:54:27.455Z,101919.13
2022-10-19T18:56:29.278Z,101927.97
2022-10-19T18:58:31.328Z,101936.69
2022-10-19T19:00:33.299Z,101937.38
2022-10-19T19:02:45.708Z,101939.25
2022-10-19T19:04:48.007Z,101940.88
2022-10-19T19:06:49.828Z,101941.38
2022-10-19T19:08:54.874Z,101940.00
2022-10-19T19:10:57.088Z,101941.47
2022-10-19T19:12:58.825Z,101942.75
2022-10-19T19:15:00.513Z,101943.59
2022-10-19T19:17:02.232Z,101950.13
2022-10-19T19:19:05.808Z,101947.06
2022-10-19T19:21:17.937Z,101952.56
2022-10-19T19:23:19.795Z,101949.13
2022-10-19T19:25:21.624Z,101937.31
2022-10-19T19:27:27.168Z,101958.03
2022-10-19T19:29:31.329Z,101958.03
2022-10-19T19:31:33.523Z,101938.56
2022-10-19T19:33:36.816Z,101962.00
2022-10-19T19:35:46.653Z,101960.28
2022-10-19T19:37:48.335Z,101961.59
2022-10-19T19:39:50.043Z,101956.97
2022-10-19T19:41:51.880Z,101966.91
2022-10-19T19:43:55.177Z,101967.25
2022-10-19T19:46:04.758Z,101963.75
2022-10-19T19:48:10.711Z,101959.44
2022-10-19T19:50:12.539Z,101964.84
2022-10-19T19:52:14.300Z,101953.88
2022-10-19T19:54:16.070Z,101967.03
2022-10-19T19:56:20.435Z,101977.72
2022-10-19T19:58:22.175Z,101973.53
2022-10-19T20:00:25.046Z,101980.13
2022-10-19T20:02:26.768Z,101981.16
2022-10-19T20:04:28.518Z,101984.25
2022-10-19T20:06:30.745Z,101988.41
2022-10-19T20:08:33.042Z,101990.78
2022-10-19T20:10:39.395Z,101993.25
2022-10-19T20:12:41.152Z,101996.81
2022-10-19T20:14:43.741Z,102001.13
2022-10-19T20:16:45.409Z,102002.69
2022-10-19T20:18:50.290Z,102010.28
2022-10-19T20:20:52.144Z,102017.31
2022-10-19T20:22:53.830Z,102013.22
2022-10-19T20:24:55.509Z,102015.78
2022-10-19T20:26:57.293Z,102013.84
2022-10-19T20:29:00.890Z,102009.63
2022-10-19T20:31:07.852Z,102014.88
2022-10-19T20:33:09.986Z,102018.25
2022-10-19T20:35:11.698Z,102023.50
2022-10-19T20:37:13.448Z,102007.78
2022-10-19T20:39:16.727Z,102018.69
2022-10-19T20:41:20.174Z,102008.94
2022-10-19T20:43:21.985Z,102013.59
2022-10-19T20:45:23.690Z,102017.91
2022-10-19T20:47:25.371Z,102019.72
2022-10-19T20:49:27.198Z,102027.22
2022-10-19T20:51:32.626Z,102016.88
2022-10-19T20:53:34.543Z,102023.47
2022-10-19T20:55:36.339Z,102020.16
2022-10-19T20:57:38.086Z,102023.72
2022-10-19T20:59:39.778Z,102032.75
2022-10-19T21:01:43.425Z,102015.09
2022-10-19T21:03:49.094Z,102023.34
2022-10-19T21:05:50.771Z,102027.44
2022-10-19T21:07:53.114Z,102018.78
2022-10-19T21:09:55.122Z,102040.19
2022-10-19T21:11:56.906Z,102034.34
2022-10-19T21:14:04.344Z,102038.13
2022-10-19T21:16:11.523Z,102035.41
2022-10-19T21:18:13.311Z,102034.56
2022-10-19T21:20:15.021Z,102037.28
2022-10-19T21:22:16.709Z,102034.88
2022-10-19T21:24:21.555Z,102024.16
2022-10-19T21:26:26.004Z,102028.47
2022-10-19T21:28:27.869Z,102024.53
2022-10-19T21:30:29.626Z,102023.44
2022-10-19T21:32:31.338Z,102021.03
2022-10-19T21:34:33.118Z,102023.50
2022-10-19T21:36:35.071Z,102013.38
2022-10-19T21:38:36.797Z,102027.09
2022-10-19T21:40:38.758Z,102017.72
2022-10-19T21:42:40.453Z,102029.72
2022-10-19T21:44:42.249Z,102022.97
2022-10-19T21:46:44.843Z,102029.38
2022-10-19T21:48:47.160Z,102027.97
2022-10-19T21:50:49.590Z,102025.00
2022-10-19T21:52:51.424Z,102020.84
2022-10-19T21:54:53.765Z,102024.53
2022-10-19T21:56:56.153Z,102016.88
2022-10-19T21:58:58.203Z,102020.38
2022-10-19T22:01:07.698Z,102015.88
2022-10-19T22:03:10.869Z,102026.31
2022-10-19T22:05:12.671Z,102028.72
2022-10-19T22:07:14.382Z,102024.53
2022-10-19T22:09:22.582Z,102019.94
2022-10-19T22:11:24.987Z,102026.06
2022-10-19T22:13:26.725Z,102026.19
2022-10-19T22:15:28.448Z,102026.31
2022-10-19T22:17:30.393Z,102028.13
2022-10-19T22:19:32.112Z,102027.53
2022-10-19T22:21:34.822Z,102028.31
2022-10-19T22:23:36.991Z,102024.72
2022-10-19T22:25:38.714Z,102035.41
2022-10-19T22:27:40.437Z,102044.34
2022-10-19T22:29:42.357Z,102044.19
2022-10-19T22:31:44.325Z,102042.88
2022-10-19T22:33:46.011Z,102051.50
2022-10-19T22:35:58.642Z,102053.50
2022-10-19T22:38:00.390Z,102051.44
2022-10-19T22:40:09.866Z,102015.13
2022-10-19T22:42:11.790Z,102028.97
2022-10-19T22:44:13.571Z,101945.22
2022-10-19T22:46:15.352Z,101946.72
2022-10-19T22:48:18.601Z,102019.34
2022-10-19T22:50:20.400Z,102009.03
2022-10-19T22:52:22.178Z,102009.88
2022-10-19T22:54:24.073Z,101991.38
2022-10-19T22:56:25.956Z,102042.94
2022-10-19T22:58:27.733Z,101969.41
2022-10-19T23:00:30.578Z,102026.78
2022-10-19T23:02:32.424Z,102064.38
2022-10-19T23:04:34.424Z,101963.09
2022-10-19T23:06:36.707Z,102056.00
2022-10-19T23:08:38.607Z,101988.75
2022-10-19T23:10:40.341Z,102037.41
2022-10-19T23:12:42.723Z,102068.59
2022-10-19T23:14:44.451Z,102004.75
2022-10-19T23:16:46.204Z,102091.59
2022-10-19T23:18:48.640Z,101949.84
2022-10-19T23:20:57.363Z,101890.94
2022-10-19T23:22:59.122Z,102024.28
2022-10-19T23:25:01.214Z,102055.84
2022-10-19T23:27:03.081Z,102080.50
2022-10-19T23:29:04.816Z,102084.34
2022-10-19T23:31:10.158Z,102031.81
2022-10-19T23:33:11.882Z,102051.53
2022-10-19T23:35:13.741Z,102056.47
2022-10-19T23:37:16.003Z,102055.69
2022-10-19T23:39:18.328Z,101995.25
2022-10-19T23:41:21.047Z,102098.19
2022-10-19T23:43:23.046Z,102106.84
2022-10-19T23:45:24.850Z,102078.53
2022-10-19T23:47:26.824Z,102066.41
2022-10-19T23:49:28.731Z,102074.44
2022-10-19T23:51:30.644Z,102080.31
2022-10-19T23:53:35.755Z,102072.63
2022-10-19T23:55:40.301Z,102069.50
2022-10-19T23:57:42.189Z,102066.44
2022-10-19T23:59:43.998Z,102120.81
